createdAt,value
2023-04-29T00:00:09.145Z,68.60
2023-04-29T00:00:44.439Z,68.25
2023-04-29T00:01:17.954Z,68.63
2023-04-29T00:01:50.711Z,68.88
2023-04-29T00:02:23.304Z,68.28
2023-04-29T00:02:57.083Z,69.13
2023-04-29T00:03:32.534Z,68.40
2023-04-29T00:04:05.564Z,70.45
2023-04-29T00:04:39.295Z,69.10
2023-04-29T00:05:12.212Z,69.85
2023-04-29T00:05:45.156Z,68.57
2023-04-29T00:06:19.055Z,70.00
2023-04-29T00:06:51.681Z,69.13
2023-04-29T00:07:24.200Z,67.97
2023-04-29T00:07:57.948Z,68.13
2023-04-29T00:08:30.467Z,69.57
2023-04-29T00:09:04.574Z,67.38
2023-04-29T00:09:38.745Z,68.78
2023-04-29T00:10:14.718Z,68.43
2023-04-29T00:10:47.206Z,68.47
2023-04-29T00:11:20.710Z,69.45
2023-04-29T00:11:53.184Z,69.10
2023-04-29T00:12:26.016Z,69.45
2023-04-29T00:12:59.440Z,70.22
2023-04-29T00:13:33.367Z,69.65
2023-04-29T00:14:06.912Z,70.85
2023-04-29T00:14:39.411Z,69.05
2023-04-29T00:15:12.317Z,70.55
2023-04-29T00:15:45.919Z,69.00
2023-04-29T00:16:18.779Z,70.32
2023-04-29T00:16:51.707Z,69.38
2023-04-29T00:17:25.342Z,68.18
2023-04-29T00:17:57.976Z,67.88
2023-04-29T00:18:30.495Z,69.30
2023-04-29T00:19:03.961Z,69.13
2023-04-29T00:19:36.486Z,68.60
2023-04-29T00:20:10.469Z,69.03
2023-04-29T00:20:44.244Z,69.63
2023-04-29T00:21:16.699Z,69.93
2023-04-29T00:21:49.284Z,68.18
2023-04-29T00:22:23.076Z,68.97
2023-04-29T00:22:55.571Z,69.28
2023-04-29T00:23:28.078Z,68.80
2023-04-29T00:24:00.756Z,69.88
2023-04-29T00:24:34.281Z,69.45
2023-04-29T00:25:08.369Z,67.93
2023-04-29T00:25:40.960Z,69.00
2023-04-29T00:26:14.486Z,68.78
2023-04-29T00:26:51.675Z,67.65
2023-04-29T00:27:24.262Z,68.93
2023-04-29T00:28:01.917Z,69.82
2023-04-29T00:28:35.740Z,70.18
2023-04-29T00:29:08.194Z,70.75
2023-04-29T00:29:41.665Z,68.78
2023-04-29T00:30:14.264Z,67.95
2023-04-29T00:30:47.112Z,69.20
2023-04-29T00:31:21.769Z,68.97
2023-04-29T00:31:54.330Z,68.90
2023-04-29T00:32:26.858Z,69.22
2023-04-29T00:33:00.557Z,69.72
2023-04-29T00:33:33.254Z,69.40
2023-04-29T00:34:05.853Z,70.07
2023-04-29T00:34:39.331Z,68.82
2023-04-29T00:35:12.316Z,68.65
2023-04-29T00:35:44.987Z,68.05
2023-04-29T00:36:18.539Z,69.43
2023-04-29T00:36:51.176Z,68.22
2023-04-29T00:37:23.811Z,68.80
2023-04-29T00:37:56.302Z,69.97
2023-04-29T00:38:29.846Z,69.68
2023-04-29T00:39:02.844Z,69.65
2023-04-29T00:39:35.382Z,69.13
2023-04-29T00:40:10.461Z,69.47
2023-04-29T00:40:43.848Z,70.40
2023-04-29T00:41:17.445Z,69.72
2023-04-29T00:41:50.071Z,69.85
2023-04-29T00:42:22.571Z,70.18
2023-04-29T00:42:56.082Z,68.47
2023-04-29T00:43:28.664Z,69.93
2023-04-29T00:44:02.654Z,69.03
2023-04-29T00:44:36.176Z,70.53
2023-04-29T00:45:10.009Z,69.28
2023-04-29T00:45:42.956Z,68.10
2023-04-29T00:46:16.495Z,70.18
2023-04-29T00:46:49.139Z,69.75
2023-04-29T00:47:22.464Z,69.35
2023-04-29T00:47:55.034Z,68.97
2023-04-29T00:48:28.504Z,71.05
2023-04-29T00:49:01.712Z,69.03
2023-04-29T00:49:35.065Z,68.85
2023-04-29T00:50:08.901Z,69.57
2023-04-29T00:50:42.605Z,69.35
2023-04-29T00:51:17.082Z,69.15
2023-04-29T00:51:50.782Z,68.88
2023-04-29T00:52:25.027Z,70.65
2023-04-29T00:52:57.634Z,69.47
2023-04-29T00:53:30.758Z,68.85
2023-04-29T00:54:05.158Z,68.50
2023-04-29T00:54:40.002Z,70.80
2023-04-29T00:55:13.062Z,69.00
2023-04-29T00:55:48.910Z,70.53
2023-04-29T00:56:22.134Z,70.18
2023-04-29T00:56:55.987Z,67.63
2023-04-29T00:57:30.201Z,71.00
2023-04-29T00:58:04.116Z,69.30
2023-04-29T00:58:39.218Z,69.75
2023-04-29T00:59:15.513Z,69.18
2023-04-29T00:59:48.852Z,69.78
2023-04-29T01:00:21.436Z,68.00
2023-04-29T01:00:56.469Z,69.57
2023-04-29T01:01:29.459Z,70.10
2023-04-29T01:02:03.109Z,69.80
2023-04-29T01:02:36.888Z,70.35
2023-04-29T01:03:10.005Z,69.57
2023-04-29T01:03:42.927Z,68.03
2023-04-29T01:04:17.231Z,69.35
2023-04-29T01:04:49.828Z,69.15
2023-04-29T01:05:23.584Z,70.70
2023-04-29T01:06:06.145Z,69.05
2023-04-29T01:06:51.634Z,67.57
2023-04-29T01:07:30.518Z,68.38
2023-04-29T01:08:14.988Z,68.87
2023-04-29T01:09:01.465Z,70.05
2023-04-29T01:09:53.171Z,69.93
2023-04-29T01:10:31.460Z,68.67
2023-04-29T01:11:08.445Z,70.45
2023-04-29T01:12:06.686Z,70.03
2023-04-29T01:12:46.690Z,68.85
2023-04-29T01:13:29.428Z,68.80
2023-04-29T01:14:03.839Z,69.50
2023-04-29T01:14:42.934Z,69.63
2023-04-29T01:15:21.649Z,69.13
2023-04-29T01:16:01.563Z,69.20
2023-04-29T01:16:42.203Z,69.60
2023-04-29T01:17:19.819Z,69.22
2023-04-29T01:18:00.322Z,70.18
2023-04-29T01:18:38.054Z,69.22
2023-04-29T01:19:19.848Z,69.22
2023-04-29T01:19:55.130Z,70.40
2023-04-29T01:20:29.364Z,70.18
2023-04-29T01:21:01.888Z,69.72
2023-04-29T01:21:48.745Z,69.28
2023-04-29T01:22:22.643Z,69.50
2023-04-29T01:22:55.127Z,69.88
2023-04-29T01:23:29.663Z,70.00
2023-04-29T01:24:03.467Z,70.05
2023-04-29T01:24:38.990Z,69.28
2023-04-29T01:25:13.626Z,68.07
2023-04-29T01:26:08.242Z,69.05
2023-04-29T01:27:26.754Z,69.95
2023-04-29T01:28:10.121Z,68.93
2023-04-29T01:28:50.644Z,69.10
2023-04-29T01:29:32.109Z,69.93
2023-04-29T01:30:13.209Z,69.60
2023-04-29T01:30:51.789Z,70.28
2023-04-29T01:31:31.252Z,69.78
2023-04-29T01:32:09.031Z,69.88
2023-04-29T01:32:51.708Z,69.25
2023-04-29T01:33:32.649Z,69.40
2023-04-29T01:34:11.008Z,67.95
2023-04-29T01:34:49.672Z,69.00
2023-04-29T01:35:40.047Z,69.22
2023-04-29T01:36:22.231Z,69.05
2023-04-29T01:37:03.468Z,71.80
2023-04-29T01:37:47.769Z,69.07
2023-04-29T01:38:34.085Z,71.00
2023-04-29T01:39:15.873Z,69.07
2023-04-29T01:39:58.219Z,70.22
2023-04-29T01:40:38.036Z,69.80
2023-04-29T01:41:24.555Z,70.40
2023-04-29T01:42:08.234Z,69.43
2023-04-29T01:42:44.813Z,68.85
2023-04-29T01:43:23.612Z,69.88
2023-04-29T01:43:58.415Z,69.45
2023-04-29T01:44:35.120Z,69.47
2023-04-29T01:45:11.555Z,70.30
2023-04-29T01:45:44.942Z,69.35
2023-04-29T01:46:19.674Z,69.72
2023-04-29T01:46:54.942Z,69.13
2023-04-29T01:47:33.102Z,69.65
2023-04-29T01:48:06.306Z,69.10
2023-04-29T01:48:40.774Z,69.75
2023-04-29T01:49:13.891Z,69.47
2023-04-29T01:49:46.839Z,70.20
2023-04-29T01:50:21.276Z,68.90
2023-04-29T01:50:53.802Z,69.30
2023-04-29T01:51:26.538Z,69.05
2023-04-29T01:52:00.038Z,68.85
2023-04-29T01:52:32.967Z,68.93
2023-04-29T01:53:07.942Z,68.72
2023-04-29T01:53:43.291Z,69.00
2023-04-29T01:54:15.878Z,67.72
2023-04-29T01:54:49.246Z,68.07
2023-04-29T01:55:22.506Z,68.38
2023-04-29T01:56:10.425Z,68.70
2023-04-29T01:56:52.839Z,68.15
2023-04-29T01:57:44.307Z,68.35
2023-04-29T01:58:31.855Z,68.10
2023-04-29T01:59:12.521Z,68.63
2023-04-29T02:00:12.111Z,67.07
2023-04-29T02:00:51.922Z,66.40
2023-04-29T02:01:24.798Z,67.57
2023-04-29T02:01:58.951Z,68.55
2023-04-29T02:02:32.944Z,68.03
2023-04-29T02:03:15.568Z,69.18
2023-04-29T02:03:51.830Z,68.95
2023-04-29T02:04:26.018Z,69.05
2023-04-29T02:04:58.772Z,67.55
2023-04-29T02:05:34.138Z,70.20
2023-04-29T02:06:08.397Z,67.35
2023-04-29T02:06:42.078Z,68.95
2023-04-29T02:07:14.641Z,68.88
2023-04-29T02:07:48.131Z,67.88
2023-04-29T02:08:20.604Z,67.32
2023-04-29T02:08:54.745Z,69.75
2023-04-29T02:09:28.326Z,67.45
2023-04-29T02:10:07.755Z,66.85
2023-04-29T02:10:51.346Z,68.43
2023-04-29T02:11:34.462Z,68.15
2023-04-29T02:12:07.791Z,69.15
2023-04-29T02:12:40.934Z,68.20
2023-04-29T02:13:14.565Z,67.78
2023-04-29T02:13:48.165Z,67.80
2023-04-29T02:14:21.812Z,68.40
2023-04-29T02:14:56.350Z,68.15
2023-04-29T02:15:30.532Z,68.55
2023-04-29T02:16:09.104Z,67.28
2023-04-29T02:16:46.428Z,68.63
2023-04-29T02:17:19.754Z,68.65
2023-04-29T02:17:52.743Z,67.82
2023-04-29T02:18:27.551Z,67.43
2023-04-29T02:19:00.139Z,68.07
2023-04-29T02:19:32.657Z,66.80
2023-04-29T02:20:07.373Z,66.93
2023-04-29T02:20:40.964Z,66.75
2023-04-29T02:21:13.473Z,68.35
2023-04-29T02:21:46.948Z,68.72
2023-04-29T02:22:19.438Z,68.22
2023-04-29T02:22:51.974Z,69.95
2023-04-29T02:23:27.165Z,69.00
2023-04-29T02:24:03.226Z,67.45
2023-04-29T02:24:36.753Z,68.25
2023-04-29T02:25:10.150Z,67.97
2023-04-29T02:25:42.853Z,68.30
2023-04-29T02:26:16.326Z,67.78
2023-04-29T02:26:48.810Z,68.00
2023-04-29T02:27:21.442Z,67.93
2023-04-29T02:27:54.892Z,67.32
2023-04-29T02:28:27.427Z,67.38
2023-04-29T02:28:59.963Z,68.07
2023-04-29T02:29:33.759Z,67.00
2023-04-29T02:30:07.562Z,68.20
2023-04-29T02:30:40.364Z,67.80
2023-04-29T02:31:13.960Z,67.55
2023-04-29T02:31:50.822Z,67.38
2023-04-29T02:32:23.443Z,68.45
2023-04-29T02:32:56.912Z,68.20
2023-04-29T02:33:29.471Z,69.10
2023-04-29T02:34:02.087Z,67.90
2023-04-29T02:34:35.587Z,68.32
2023-04-29T02:35:08.752Z,67.50
2023-04-29T02:35:41.399Z,68.13
2023-04-29T02:36:14.861Z,68.38
2023-04-29T02:36:47.358Z,68.00
2023-04-29T02:37:19.862Z,69.40
2023-04-29T02:37:53.692Z,68.25
2023-04-29T02:38:26.689Z,68.53
2023-04-29T02:39:00.224Z,68.63
2023-04-29T02:39:36.361Z,67.88
2023-04-29T02:40:09.916Z,66.28
2023-04-29T02:40:43.247Z,68.15
2023-04-29T02:41:19.046Z,67.72
2023-04-29T02:41:55.872Z,68.60
2023-04-29T02:42:28.756Z,66.88
2023-04-29T02:43:02.252Z,69.13
2023-04-29T02:43:34.840Z,67.47
2023-04-29T02:44:07.482Z,67.68
2023-04-29T02:44:41.633Z,66.53
2023-04-29T02:45:15.028Z,67.22
2023-04-29T02:45:47.556Z,68.60
2023-04-29T02:46:21.387Z,67.00
2023-04-29T02:46:53.885Z,68.10
2023-04-29T02:47:27.485Z,67.82
2023-04-29T02:48:00.593Z,69.03
2023-04-29T02:48:33.099Z,66.72
2023-04-29T02:49:07.392Z,67.47
2023-04-29T02:49:40.132Z,67.03
2023-04-29T02:50:12.648Z,68.25
2023-04-29T02:50:46.715Z,67.30
2023-04-29T02:51:19.938Z,69.10
2023-04-29T02:51:52.508Z,67.30
2023-04-29T02:52:28.188Z,67.00
2023-04-29T02:53:00.760Z,68.43
2023-04-29T02:53:33.511Z,67.43
2023-04-29T02:54:06.807Z,67.70
2023-04-29T02:54:41.618Z,66.78
2023-04-29T02:55:14.114Z,68.18
2023-04-29T02:55:48.325Z,67.38
2023-04-29T02:56:23.314Z,67.97
2023-04-29T02:56:55.841Z,67.53
2023-04-29T02:57:29.626Z,68.70
2023-04-29T02:58:03.841Z,67.40
2023-04-29T02:58:36.412Z,68.28
2023-04-29T02:59:09.879Z,67.57
2023-04-29T02:59:42.820Z,67.35
2023-04-29T03:00:15.335Z,68.10
2023-04-29T03:00:48.867Z,68.68
2023-04-29T03:01:21.900Z,68.20
2023-04-29T03:01:54.628Z,68.28
2023-04-29T03:02:28.159Z,67.85
2023-04-29T03:03:04.153Z,67.90
2023-04-29T03:03:37.022Z,67.50
2023-04-29T03:04:10.858Z,67.40
2023-04-29T03:04:43.787Z,70.05
2023-04-29T03:05:16.289Z,68.32
2023-04-29T03:05:50.302Z,67.65
2023-04-29T03:06:22.866Z,68.65
2023-04-29T03:06:56.753Z,68.95
2023-04-29T03:07:32.895Z,69.30
2023-04-29T03:08:05.662Z,67.57
2023-04-29T03:08:38.709Z,67.15
2023-04-29T03:09:12.526Z,66.97
2023-04-29T03:09:46.674Z,68.03
2023-04-29T03:10:19.824Z,68.45
2023-04-29T03:10:53.811Z,68.43
2023-04-29T03:11:26.336Z,68.18
2023-04-29T03:11:58.953Z,67.78
2023-04-29T03:12:32.405Z,68.90
2023-04-29T03:13:07.319Z,68.00
2023-04-29T03:13:40.141Z,68.65
2023-04-29T03:14:13.462Z,68.65
2023-04-29T03:14:47.326Z,69.57
2023-04-29T03:15:20.228Z,69.30
2023-04-29T03:15:52.957Z,67.75
2023-04-29T03:16:25.885Z,69.10
2023-04-29T03:17:00.764Z,69.22
2023-04-29T03:17:34.757Z,69.53
2023-04-29T03:18:07.351Z,69.43
2023-04-29T03:18:41.403Z,68.63
2023-04-29T03:19:13.901Z,68.35
2023-04-29T03:19:46.413Z,69.22
2023-04-29T03:20:19.568Z,68.20
2023-04-29T03:20:53.017Z,69.00
2023-04-29T03:21:26.325Z,69.85
2023-04-29T03:21:58.858Z,69.80
2023-04-29T03:22:31.508Z,70.20
2023-04-29T03:23:05.189Z,69.43
2023-04-29T03:23:39.433Z,68.38
2023-04-29T03:24:13.078Z,67.53
2023-04-29T03:24:47.987Z,70.05
2023-04-29T03:25:20.991Z,68.32
2023-04-29T03:25:55.758Z,69.93
2023-04-29T03:26:29.670Z,70.18
2023-04-29T03:27:02.676Z,68.78
2023-04-29T03:27:35.173Z,69.20
2023-04-29T03:28:08.945Z,68.85
2023-04-29T03:28:42.508Z,70.23
2023-04-29T03:29:15.030Z,70.45
2023-04-29T03:29:49.428Z,69.00
2023-04-29T03:30:21.947Z,69.70
2023-04-29T03:30:58.824Z,69.60
2023-04-29T03:31:32.426Z,67.82
2023-04-29T03:32:05.293Z,68.50
2023-04-29T03:32:38.022Z,68.47
2023-04-29T03:33:11.852Z,69.40
2023-04-29T03:33:44.518Z,68.80
2023-04-29T03:34:17.068Z,69.22
2023-04-29T03:34:57.742Z,68.95
2023-04-29T03:35:50.477Z,67.70
2023-04-29T03:36:44.248Z,69.57
2023-04-29T03:37:17.548Z,69.05
2023-04-29T03:37:54.065Z,69.47
2023-04-29T03:38:35.867Z,68.22
2023-04-29T03:39:09.921Z,69.78
2023-04-29T03:39:42.908Z,68.47
2023-04-29T03:40:17.900Z,69.60
2023-04-29T03:40:50.586Z,68.38
2023-04-29T03:41:24.282Z,68.82
2023-04-29T03:41:57.748Z,68.72
2023-04-29T03:42:30.250Z,69.07
2023-04-29T03:43:03.426Z,69.10
2023-04-29T03:43:37.721Z,69.68
2023-04-29T03:44:10.596Z,68.10
2023-04-29T03:44:43.457Z,69.40
2023-04-29T03:45:17.714Z,68.60
2023-04-29T03:45:51.448Z,68.70
2023-04-29T03:46:27.205Z,69.60
2023-04-29T03:47:00.758Z,68.35
2023-04-29T03:47:33.503Z,67.13
2023-04-29T03:48:07.907Z,67.65
2023-04-29T03:48:41.543Z,68.18
2023-04-29T03:49:14.340Z,70.65
2023-04-29T03:49:46.982Z,69.20
2023-04-29T03:50:19.493Z,69.55
2023-04-29T03:50:54.276Z,68.55
2023-04-29T03:51:27.334Z,68.43
2023-04-29T03:52:09.138Z,69.95
2023-04-29T03:52:42.917Z,68.75
2023-04-29T03:53:20.800Z,68.82
2023-04-29T03:53:56.300Z,69.53
2023-04-29T03:54:29.334Z,69.88
2023-04-29T03:55:01.967Z,68.93
2023-04-29T03:55:37.050Z,68.30
2023-04-29T03:56:09.703Z,68.95
2023-04-29T03:56:43.195Z,68.07
2023-04-29T03:57:16.849Z,69.63
2023-04-29T03:57:49.388Z,69.30
2023-04-29T03:58:23.786Z,68.20
2023-04-29T03:58:58.495Z,69.22
2023-04-29T03:59:32.266Z,68.50
2023-04-29T04:00:05.400Z,69.78
2023-04-29T04:00:46.991Z,68.82
2023-04-29T04:01:26.003Z,68.93
2023-04-29T04:01:58.626Z,69.15
2023-04-29T04:02:32.585Z,68.30
2023-04-29T04:03:05.982Z,68.65
2023-04-29T04:03:40.593Z,68.30
2023-04-29T04:04:15.579Z,69.15
2023-04-29T04:04:51.235Z,69.03
2023-04-29T04:05:25.348Z,69.05
2023-04-29T04:06:07.537Z,68.65
2023-04-29T04:06:40.232Z,68.90
2023-04-29T04:07:12.970Z,68.90
2023-04-29T04:08:06.841Z,70.50
2023-04-29T04:08:53.044Z,68.72
2023-04-29T04:09:34.348Z,69.50
2023-04-29T04:10:07.580Z,68.60
2023-04-29T04:10:41.943Z,69.57
2023-04-29T04:11:31.635Z,69.88
2023-04-29T04:12:07.942Z,68.32
2023-04-29T04:12:42.083Z,69.28
2023-04-29T04:13:16.951Z,69.32
2023-04-29T04:13:49.937Z,68.15
2023-04-29T04:14:23.078Z,68.07
2023-04-29T04:14:57.520Z,69.57
2023-04-29T04:15:29.973Z,68.50
2023-04-29T04:16:03.877Z,69.40
2023-04-29T04:16:38.197Z,68.43
2023-04-29T04:17:11.369Z,68.47
2023-04-29T04:17:44.067Z,68.38
2023-04-29T04:18:17.728Z,68.32
2023-04-29T04:18:50.774Z,68.55
2023-04-29T04:19:23.420Z,70.28
2023-04-29T04:19:57.007Z,67.72
2023-04-29T04:20:29.489Z,68.85
2023-04-29T04:21:06.722Z,69.47
2023-04-29T04:21:40.346Z,67.72
2023-04-29T04:22:17.120Z,66.82
2023-04-29T04:23:01.485Z,67.13
2023-04-29T04:23:38.088Z,67.55
2023-04-29T04:24:10.649Z,67.45
2023-04-29T04:24:44.073Z,67.85
2023-04-29T04:25:17.769Z,68.40
2023-04-29T04:25:53.308Z,68.38
2023-04-29T04:26:49.917Z,68.28
2023-04-29T04:27:27.807Z,67.18
2023-04-29T04:28:02.262Z,67.85
2023-04-29T04:28:52.292Z,68.35
2023-04-29T04:29:48.003Z,66.55
2023-04-29T04:30:24.269Z,66.57
2023-04-29T04:30:57.111Z,68.25
2023-04-29T04:31:31.068Z,66.35
2023-04-29T04:32:05.739Z,67.50
2023-04-29T04:32:39.235Z,67.78
2023-04-29T04:33:11.738Z,67.22
2023-04-29T04:33:47.199Z,67.63
2023-04-29T04:34:20.384Z,66.43
2023-04-29T04:34:55.455Z,67.57
2023-04-29T04:35:28.973Z,67.55
2023-04-29T04:36:01.564Z,66.32
2023-04-29T04:36:35.568Z,66.65
2023-04-29T04:37:13.018Z,66.75
2023-04-29T04:37:47.174Z,66.53
2023-04-29T04:38:19.722Z,66.05
2023-04-29T04:38:53.361Z,66.97
2023-04-29T04:39:26.880Z,66.05
2023-04-29T04:40:02.246Z,67.78
2023-04-29T04:40:37.185Z,66.28
2023-04-29T04:41:26.390Z,67.28
2023-04-29T04:42:00.688Z,66.55
2023-04-29T04:42:35.965Z,67.10
2023-04-29T04:43:09.730Z,67.15
2023-04-29T04:43:46.270Z,67.35
2023-04-29T04:44:23.765Z,65.97
2023-04-29T04:45:12.508Z,67.93
2023-04-29T04:45:54.312Z,65.65
2023-04-29T04:46:26.917Z,65.18
2023-04-29T04:47:20.626Z,65.78
2023-04-29T04:48:07.223Z,66.22
2023-04-29T04:48:41.844Z,65.47
2023-04-29T04:49:17.138Z,66.38
2023-04-29T04:49:58.760Z,65.32
2023-04-29T04:50:33.108Z,66.47
2023-04-29T04:51:09.415Z,65.70
2023-04-29T04:51:45.161Z,66.00
2023-04-29T04:52:20.963Z,66.45
2023-04-29T04:52:58.959Z,65.20
2023-04-29T04:53:50.183Z,66.32
2023-04-29T04:54:27.251Z,65.47
2023-04-29T04:55:11.320Z,66.57
2023-04-29T04:55:49.926Z,63.92
2023-04-29T04:56:22.792Z,65.40
2023-04-29T04:56:58.165Z,65.75
2023-04-29T04:57:30.999Z,66.25
2023-04-29T04:58:06.500Z,65.30
2023-04-29T04:58:40.153Z,64.72
2023-04-29T04:59:12.627Z,65.72
2023-04-29T04:59:46.548Z,65.07
2023-04-29T05:00:25.407Z,66.85
2023-04-29T05:00:58.076Z,64.68
2023-04-29T05:01:31.261Z,65.20
2023-04-29T05:02:04.865Z,65.10
2023-04-29T05:02:38.148Z,64.93
2023-04-29T05:03:11.564Z,65.40
2023-04-29T05:03:45.552Z,65.22
2023-04-29T05:04:18.604Z,67.38
2023-04-29T05:04:51.699Z,64.55
2023-04-29T05:05:26.539Z,64.45
2023-04-29T05:06:00.119Z,65.53
2023-04-29T05:06:35.605Z,64.82
2023-04-29T05:07:08.133Z,66.90
2023-04-29T05:08:00.311Z,65.40
2023-04-29T05:08:40.359Z,65.20
2023-04-29T05:09:15.252Z,65.95
2023-04-29T05:09:48.118Z,66.55
2023-04-29T05:10:20.928Z,65.20
2023-04-29T05:10:59.181Z,65.70
2023-04-29T05:11:31.748Z,65.68
2023-04-29T05:12:25.376Z,64.03
2023-04-29T05:12:58.800Z,64.47
2023-04-29T05:13:32.903Z,65.40
2023-04-29T05:14:06.945Z,65.50
2023-04-29T05:14:40.430Z,65.85
2023-04-29T05:15:14.946Z,65.03
2023-04-29T05:15:48.395Z,65.25
2023-04-29T05:16:27.108Z,66.13
2023-04-29T05:17:00.645Z,65.43
2023-04-29T05:17:34.867Z,65.43
2023-04-29T05:18:08.479Z,64.57
2023-04-29T05:18:41.044Z,65.03
2023-04-29T05:19:13.632Z,65.40
2023-04-29T05:19:47.742Z,64.25
2023-04-29T05:20:20.606Z,64.38
2023-04-29T05:20:53.123Z,64.22
2023-04-29T05:21:27.017Z,64.28
2023-04-29T05:21:59.517Z,64.55
2023-04-29T05:22:32.039Z,66.80
2023-04-29T05:23:05.715Z,64.13
2023-04-29T05:23:43.404Z,64.55
2023-04-29T05:24:16.913Z,63.60
2023-04-29T05:24:51.277Z,63.58
2023-04-29T05:25:23.810Z,64.55
2023-04-29T05:25:57.642Z,64.63
2023-04-29T05:26:31.895Z,64.40
2023-04-29T05:27:07.741Z,64.00
2023-04-29T05:27:41.841Z,65.07
2023-04-29T05:28:18.154Z,64.47
2023-04-29T05:28:51.685Z,64.70
2023-04-29T05:29:27.230Z,65.15
2023-04-29T05:30:04.187Z,64.53
2023-04-29T05:30:38.025Z,63.40
2023-04-29T05:31:11.721Z,64.68
2023-04-29T05:31:44.236Z,63.28
2023-04-29T05:32:17.816Z,62.95
2023-04-29T05:32:50.365Z,63.90
2023-04-29T05:33:24.967Z,64.05
2023-04-29T05:33:58.528Z,63.83
2023-04-29T05:34:31.313Z,63.78
2023-04-29T05:35:06.628Z,64.93
2023-04-29T05:35:41.835Z,64.68
2023-04-29T05:36:14.420Z,64.13
2023-04-29T05:36:47.258Z,63.92
2023-04-29T05:37:21.166Z,63.83
2023-04-29T05:38:09.526Z,63.67
2023-04-29T05:38:46.307Z,64.60
2023-04-29T05:39:18.851Z,63.53
2023-04-29T05:39:59.559Z,63.45
2023-04-29T05:40:33.177Z,63.17
2023-04-29T05:41:24.920Z,62.55
2023-04-29T05:42:20.700Z,63.05
2023-04-29T05:42:57.511Z,62.47
2023-04-29T05:43:30.060Z,62.70
2023-04-29T05:44:04.584Z,63.70
2023-04-29T05:44:37.719Z,63.53
2023-04-29T05:45:12.714Z,63.00
2023-04-29T05:45:48.940Z,62.95
2023-04-29T05:46:23.221Z,62.70
2023-04-29T05:46:56.170Z,63.30
2023-04-29T05:47:29.723Z,63.03
2023-04-29T05:48:02.266Z,63.22
2023-04-29T05:48:34.881Z,63.00
2023-04-29T05:49:08.912Z,63.05
2023-04-29T05:49:41.420Z,64.15
2023-04-29T05:50:13.983Z,63.17
2023-04-29T05:50:48.273Z,62.53
2023-04-29T05:51:20.975Z,62.20
2023-04-29T05:51:54.763Z,62.03
2023-04-29T05:52:28.298Z,63.10
2023-04-29T05:53:00.899Z,62.35
2023-04-29T05:53:33.455Z,63.33
2023-04-29T05:54:07.009Z,63.60
2023-04-29T05:54:39.598Z,62.25
2023-04-29T05:55:12.979Z,63.30
2023-04-29T05:55:46.937Z,64.00
2023-04-29T05:56:22.377Z,62.87
2023-04-29T05:56:55.006Z,63.22
2023-04-29T05:57:27.575Z,63.15
2023-04-29T05:58:02.820Z,63.63
2023-04-29T05:58:35.679Z,62.35
2023-04-29T05:59:08.492Z,63.05
2023-04-29T05:59:42.155Z,62.17
2023-04-29T06:00:15.548Z,62.65
2023-04-29T06:00:50.322Z,63.10
2023-04-29T06:01:27.446Z,63.45
2023-04-29T06:02:01.154Z,62.40
2023-04-29T06:02:39.450Z,63.45
2023-04-29T06:03:18.242Z,63.97
2023-04-29T06:03:51.354Z,63.08
2023-04-29T06:04:51.177Z,62.65
2023-04-29T06:05:30.075Z,62.17
2023-04-29T06:06:17.088Z,62.75
2023-04-29T06:07:08.953Z,63.83
2023-04-29T06:07:57.354Z,62.88
2023-04-29T06:08:56.023Z,62.60
2023-04-29T06:09:33.373Z,62.28
2023-04-29T06:10:09.240Z,63.05
2023-04-29T06:10:41.824Z,62.22
2023-04-29T06:11:16.620Z,62.92
2023-04-29T06:11:49.418Z,61.92
2023-04-29T06:12:22.866Z,62.65
2023-04-29T06:12:56.835Z,62.78
2023-04-29T06:13:31.012Z,63.42
2023-04-29T06:14:04.485Z,61.50
2023-04-29T06:14:37.642Z,61.88
2023-04-29T06:15:10.814Z,62.00
2023-04-29T06:15:44.387Z,62.08
2023-04-29T06:16:17.056Z,61.97
2023-04-29T06:16:50.588Z,61.67
2023-04-29T06:17:23.289Z,62.70
2023-04-29T06:18:00.706Z,62.40
2023-04-29T06:18:38.401Z,62.67
2023-04-29T06:19:12.193Z,62.35
2023-04-29T06:20:20.923Z,62.63
2023-04-29T06:20:54.622Z,61.55
2023-04-29T06:21:28.120Z,62.10
2023-04-29T06:22:01.572Z,61.90
2023-04-29T06:22:36.132Z,62.50
2023-04-29T06:23:09.335Z,62.28
2023-04-29T06:23:48.010Z,61.25
2023-04-29T06:24:23.342Z,63.03
2023-04-29T06:24:55.978Z,63.60
2023-04-29T06:25:38.330Z,62.60
2023-04-29T06:26:13.681Z,62.25
2023-04-29T06:26:47.619Z,61.83
2023-04-29T06:27:20.541Z,63.25
2023-04-29T06:27:53.719Z,62.00
2023-04-29T06:28:31.871Z,61.80
2023-04-29T06:29:04.742Z,61.00
2023-04-29T06:29:39.173Z,62.05
2023-04-29T06:30:13.337Z,61.88
2023-04-29T06:30:46.593Z,62.17
2023-04-29T06:31:22.551Z,62.47
2023-04-29T06:31:56.794Z,62.25
2023-04-29T06:32:30.091Z,63.00
2023-04-29T06:33:03.858Z,63.15
2023-04-29T06:33:37.160Z,62.10
2023-04-29T06:34:10.887Z,62.83
2023-04-29T06:34:55.653Z,61.67
2023-04-29T06:35:43.800Z,62.25
2023-04-29T06:36:42.264Z,61.67
2023-04-29T06:37:31.090Z,61.80
2023-04-29T06:38:22.875Z,62.05
2023-04-29T06:39:06.119Z,61.10
2023-04-29T06:40:30.986Z,62.22
2023-04-29T06:41:34.986Z,61.95
2023-04-29T06:42:41.338Z,61.88
2023-04-29T06:43:35.614Z,62.90
2023-04-29T06:44:32.149Z,62.45
2023-04-29T06:45:13.221Z,61.67
2023-04-29T06:45:52.664Z,61.95
2023-04-29T06:46:34.870Z,62.17
2023-04-29T06:47:22.507Z,62.55
2023-04-29T06:48:07.546Z,62.65
2023-04-29T06:48:48.535Z,62.50
2023-04-29T06:49:22.351Z,63.35
2023-04-29T06:49:55.336Z,62.78
2023-04-29T06:50:29.681Z,62.45
2023-04-29T06:51:02.411Z,62.53
2023-04-29T06:51:36.928Z,62.47
2023-04-29T06:52:10.764Z,62.20
2023-04-29T06:52:43.332Z,62.60
2023-04-29T06:53:16.007Z,63.22
2023-04-29T06:53:49.864Z,62.92
2023-04-29T06:54:24.905Z,62.30
2023-04-29T06:54:57.508Z,62.47
2023-04-29T06:55:31.425Z,61.78
2023-04-29T06:56:04.157Z,61.90
2023-04-29T06:56:37.113Z,62.08
2023-04-29T06:57:10.720Z,62.17
2023-04-29T06:57:43.454Z,62.03
2023-04-29T06:58:16.873Z,62.75
2023-04-29T06:58:51.771Z,62.58
2023-04-29T06:59:24.904Z,61.80
2023-04-29T06:59:59.236Z,63.13
2023-04-29T07:00:33.649Z,61.50
2023-04-29T07:01:08.615Z,61.63
2023-04-29T07:01:44.453Z,61.83
2023-04-29T07:02:17.919Z,62.22
2023-04-29T07:02:53.497Z,63.20
2023-04-29T07:03:27.539Z,62.03
2023-04-29T07:04:00.602Z,62.67
2023-04-29T07:04:33.710Z,62.33
2023-04-29T07:05:08.362Z,62.97
2023-04-29T07:05:42.404Z,62.17
2023-04-29T07:06:16.021Z,62.78
2023-04-29T07:06:49.783Z,62.15
2023-04-29T07:07:23.295Z,62.38
2023-04-29T07:07:58.101Z,62.20
2023-04-29T07:08:33.530Z,61.67
2023-04-29T07:09:06.227Z,62.70
2023-04-29T07:09:40.093Z,62.38
2023-04-29T07:10:13.287Z,62.50
2023-04-29T07:10:53.541Z,62.80
2023-04-29T07:11:30.215Z,62.00
2023-04-29T07:12:03.801Z,62.95
2023-04-29T07:12:37.289Z,61.85
2023-04-29T07:13:13.987Z,63.17
2023-04-29T07:13:48.224Z,62.92
2023-04-29T07:14:23.036Z,62.35
2023-04-29T07:14:56.747Z,61.95
2023-04-29T07:15:31.558Z,61.90
2023-04-29T07:16:05.349Z,62.72
2023-04-29T07:16:39.089Z,62.70
2023-04-29T07:17:16.560Z,61.88
2023-04-29T07:17:49.235Z,62.15
2023-04-29T07:18:22.897Z,62.45
2023-04-29T07:18:55.705Z,62.83
2023-04-29T07:19:28.272Z,61.65
2023-04-29T07:20:02.077Z,62.15
2023-04-29T07:20:37.275Z,62.03
2023-04-29T07:21:10.179Z,62.15
2023-04-29T07:21:43.894Z,62.58
2023-04-29T07:22:18.410Z,63.40
2023-04-29T07:22:50.893Z,62.50
2023-04-29T07:23:24.471Z,61.83
2023-04-29T07:23:56.966Z,61.72
2023-04-29T07:24:29.599Z,62.67
2023-04-29T07:25:03.313Z,62.00
2023-04-29T07:25:36.027Z,62.60
2023-04-29T07:26:11.500Z,62.42
2023-04-29T07:26:50.940Z,62.40
2023-04-29T07:27:24.030Z,62.05
2023-04-29T07:28:06.742Z,62.60
2023-04-29T07:28:43.198Z,62.45
2023-04-29T07:29:15.927Z,62.05
2023-04-29T07:29:51.354Z,62.90
2023-04-29T07:30:25.104Z,63.08
2023-04-29T07:30:57.779Z,63.55
2023-04-29T07:31:32.156Z,62.10
2023-04-29T07:32:11.145Z,62.65
2023-04-29T07:32:44.395Z,62.25
2023-04-29T07:33:18.360Z,62.78
2023-04-29T07:33:51.972Z,62.55
2023-04-29T07:34:24.613Z,63.03
2023-04-29T07:34:58.173Z,62.75
2023-04-29T07:35:31.655Z,62.33
2023-04-29T07:36:07.362Z,62.28
2023-04-29T07:36:41.123Z,62.58
2023-04-29T07:37:13.891Z,62.33
2023-04-29T07:37:46.450Z,62.45
2023-04-29T07:38:21.427Z,62.60
2023-04-29T07:38:53.919Z,62.20
2023-04-29T07:39:29.002Z,63.22